Time;durP1;ratioP1;P1;durP2;ratioP2;P2;SDS_P1;SDS_P2;PMS_P1;PMS_P2;Temp;Humidity;BMP_temperature;BMP_pressure;BME280_temperature;BME280_humidity;BME280_pressure;Samples;Min_cycle;Max_cycle;Signal;HPM_P1;HPM_P2
2023/01/29 00:01:59;;;;;;;12.37;10.17;;;;;;;;;;5058732;28;20209;-83
2023/01/29 00:04:26;;;;;;;19.43;13.80;;;;;;;;;;5045908;28;20236;-82
2023/01/29 00:06:52;;;;;;;17.53;13.27;;;;;;;;;;5058493;28;20259;-83
2023/01/29 00:09:19;;;;;;;8.63;7.10;;;;;;;;;;5052246;28;20275;-82
2023/01/29 00:11:47;;;;;;;8.23;6.43;;;;;;;;;;5052148;28;20256;-82
2023/01/29 00:14:14;;;;;;;6.77;6.03;;;;;;;;;;5051746;28;20256;-83
2023/01/29 00:16:41;;;;;;;6.57;5.83;;;;;;;;;;5052007;28;20295;-82
2023/01/29 00:19:08;;;;;;;5.53;5.03;;;;;;;;;;5058575;28;20205;-83
2023/01/29 00:21:35;;;;;;;27.17;16.53;;;;;;;;;;5070298;28;20197;-82
2023/01/29 00:24:01;;;;;;;9.33;6.77;;;;;;;;;;5051609;28;20641;-83
2023/01/29 00:26:28;;;;;;;5.77;5.10;;;;;;;;;;5066762;28;20212;-83
2023/01/29 00:28:59;;;;;;;5.20;4.43;;;;;;;;;;5071512;28;20212;-82
2023/01/29 00:31:26;;;;;;;5.13;4.73;;;;;;;;;;5055563;28;20198;-82
2023/01/29 00:33:53;;;;;;;5.03;4.43;;;;;;;;;;5051361;28;20678;-82
2023/01/29 00:36:21;;;;;;;4.23;3.83;;;;;;;;;;5051396;28;20766;-82
2023/01/29 00:38:53;;;;;;;4.70;4.20;;;;;;;;;;5051779;28;20275;-83
2023/01/29 00:46:51;;;;;;;5.70;4.67;;;;;;;;;;5040815;28;20294;-82
2023/01/29 00:49:18;;;;;;;5.50;4.93;;;;;;;;;;5064670;28;20259;-83
2023/01/29 00:52:22;;;;;;;4.93;4.37;;;;;;;;;;5051373;28;20264;-82
2023/01/29 00:54:33;;;;;;;6.73;4.50;;;;;;;;;;5064519;28;20669;-83
2023/01/29 00:57:00;;;;;;;5.63;5.13;;;;;;;;;;5051151;28;20193;-90
2023/01/29 00:59:28;;;;;;;7.93;5.07;;;;;;;;;;5064774;28;20224;-82
2023/01/29 01:04:38;;;;;;;16.37;9.87;;;;;;;;;;5049680;28;20311;-82
2023/01/29 01:07:05;;;;;;;19.77;10.73;;;;;;;;;;5055790;28;20217;-83
2023/01/29 01:12:16;;;;;;;25.30;14.27;;;;;;;;;;5051008;28;20294;-83
2023/01/29 01:14:44;;;;;;;34.23;19.73;;;;;;;;;;5063080;28;20205;-82
2023/01/29 01:17:11;;;;;;;27.13;15.60;;;;;;;;;;5052316;28;20236;-82
2023/01/29 01:19:38;;;;;;;19.30;12.67;;;;;;;;;;5051079;28;20617;-82
2023/01/29 01:22:05;;;;;;;28.53;15.37;;;;;;;;;;5064313;28;20214;-83
2023/01/29 01:24:31;;;;;;;27.80;15.83;;;;;;;;;;5051250;28;20209;-83
2023/01/29 01:26:58;;;;;;;56.47;32.37;;;;;;;;;;5050865;28;20201;-82
2023/01/29 01:29:25;;;;;;;45.90;24.90;;;;;;;;;;5051245;28;20221;-81
2023/01/29 01:31:54;;;;;;;33.37;20.73;;;;;;;;;;5067434;28;20213;-82
2023/01/29 01:34:21;;;;;;;25.87;16.87;;;;;;;;;;5054820;28;20202;-83
2023/01/29 01:36:48;;;;;;;20.13;13.80;;;;;;;;;;5068029;28;20647;-82
2023/01/29 01:39:15;;;;;;;21.10;12.33;;;;;;;;;;5054687;28;20214;-83
2023/01/29 01:41:42;;;;;;;17.73;11.60;;;;;;;;;;5041618;28;20216;-83
2023/01/29 01:44:41;;;;;;;23.13;14.93;;;;;;;;;;5055003;28;20205;-82
2023/01/29 01:47:10;;;;;;;12.77;7.93;;;;;;;;;;5054861;28;20209;-83
2023/01/29 01:49:36;;;;;;;14.03;9.50;;;;;;;;;;5067867;28;20205;-82
2023/01/29 01:52:03;;;;;;;14.27;10.27;;;;;;;;;;5054512;28;20647;-84
2023/01/29 01:54:32;;;;;;;12.63;10.20;;;;;;;;;;5054904;28;20217;-82
2023/01/29 01:57:14;;;;;;;12.20;8.97;;;;;;;;;;5053972;28;20229;-82
2023/01/29 01:59:43;;;;;;;23.53;14.47;;;;;;;;;;5062429;28;20243;-82
2023/01/29 02:10:28;;;;;;;43.30;25.30;;;;;;;;;;5070317;28;20235;-82
2023/01/29 02:12:55;;;;;;;82.73;48.50;;;;;;;;;;5043234;28;20218;-82
2023/01/29 02:15:21;;;;;;;32.87;21.43;;;;;;;;;;5064652;28;20229;-82
2023/01/29 02:17:50;;;;;;;37.37;20.77;;;;;;;;;;5054201;28;20677;-82
2023/01/29 02:20:19;;;;;;;43.97;25.70;;;;;;;;;;5054333;28;20213;-82
2023/01/29 02:23:07;;;;;;;28.40;19.30;;;;;;;;;;5053666;28;20209;-82
2023/01/29 02:25:48;;;;;;;20.00;13.37;;;;;;;;;;5042063;28;20673;-81
2023/01/29 02:28:39;;;;;;;9.30;8.17;;;;;;;;;;5057269;28;20232;-81
2023/01/29 02:31:09;;;;;;;6.70;6.10;;;;;;;;;;5071014;28;20645;-86
2023/01/29 02:33:54;;;;;;;6.77;5.53;;;;;;;;;;5048830;28;20212;-83
2023/01/29 02:36:27;;;;;;;12.53;9.13;;;;;;;;;;5073772;28;20290;-82
2023/01/29 02:38:59;;;;;;;11.03;6.03;;;;;;;;;;5062961;28;20213;-82
2023/01/29 02:41:30;;;;;;;5.83;5.23;;;;;;;;;;5058143;28;20672;-82
2023/01/29 02:44:02;;;;;;;10.57;6.57;;;;;;;;;;5073106;28;20640;-81
2023/01/29 02:46:33;;;;;;;28.30;15.70;;;;;;;;;;5073247;28;20600;-82
2023/01/29 02:49:07;;;;;;;14.07;10.97;;;;;;;;;;5073774;28;20633;-83
2023/01/29 02:51:37;;;;;;;8.37;7.40;;;;;;;;;;5065368;28;20256;-82
2023/01/29 02:54:07;;;;;;;6.17;5.57;;;;;;;;;;5067249;28;20201;-82
2023/01/29 02:56:37;;;;;;;10.03;8.70;;;;;;;;;;5062481;28;20255;-82
2023/01/29 02:59:08;;;;;;;10.60;9.47;;;;;;;;;;5057401;28;20197;-83
2023/01/29 03:01:38;;;;;;;8.97;8.07;;;;;;;;;;5053894;28;20206;-82
2023/01/29 03:04:10;;;;;;;6.23;5.63;;;;;;;;;;5071053;28;20229;-82
2023/01/29 03:06:39;;;;;;;7.83;6.17;;;;;;;;;;5061397;28;20581;-82
2023/01/29 03:09:10;;;;;;;5.93;5.13;;;;;;;;;;5058832;28;20236;-82
2023/01/29 03:11:40;;;;;;;6.97;5.57;;;;;;;;;;5060308;28;20267;-82
2023/01/29 03:14:12;;;;;;;7.30;6.60;;;;;;;;;;5046995;28;20296;-82
2023/01/29 03:16:40;;;;;;;8.67;7.87;;;;;;;;;;5071673;28;20278;-85
2023/01/29 03:19:10;;;;;;;10.93;7.97;;;;;;;;;;5053538;28;20194;-82
2023/01/29 03:32:51;;;;;;;6.80;6.00;;;;;;;;;;5071946;28;20207;-82
2023/01/29 03:35:32;;;;;;;5.60;4.93;;;;;;;;;;5052433;28;20263;-83
2023/01/29 03:37:59;;;;;;;10.07;6.70;;;;;;;;;;5052580;28;20217;-83
2023/01/29 03:40:27;;;;;;;8.93;7.67;;;;;;;;;;5052501;28;20219;-82
2023/01/29 03:42:59;;;;;;;6.13;4.77;;;;;;;;;;5066190;28;20198;-82
2023/01/29 03:45:36;;;;;;;7.60;6.50;;;;;;;;;;5063781;28;20772;-83
2023/01/29 03:48:09;;;;;;;26.90;15.20;;;;;;;;;;5053036;28;20734;-84
2023/01/29 03:50:40;;;;;;;27.17;17.33;;;;;;;;;;5053772;28;20213;-83
2023/01/29 03:53:13;;;;;;;9.43;6.90;;;;;;;;;;5053000;28;20206;-82
2023/01/29 03:55:43;;;;;;;4.30;3.90;;;;;;;;;;5053381;28;20248;-82
2023/01/29 03:58:19;;;;;;;3.47;3.17;;;;;;;;;;5063940;28;20592;-83
2023/01/29 04:00:52;;;;;;;3.80;3.50;;;;;;;;;;5060136;28;20216;-83
2023/01/29 04:03:20;;;;;;;3.83;3.47;;;;;;;;;;5046997;28;20974;-83
2023/01/29 04:05:51;;;;;;;3.97;3.37;;;;;;;;;;5052050;28;20206;-83
2023/01/29 04:08:21;;;;;;;4.50;4.10;;;;;;;;;;5063844;28;20209;-82
2023/01/29 04:10:50;;;;;;;12.30;10.37;;;;;;;;;;5052531;28;20656;-82
2023/01/29 04:13:18;;;;;;;5.67;5.03;;;;;;;;;;5051972;28;20210;-82
2023/01/29 04:15:49;;;;;;;5.73;4.37;;;;;;;;;;5052011;28;20665;-83
2023/01/29 04:18:16;;;;;;;8.20;6.77;;;;;;;;;;5052008;28;20688;-83
2023/01/29 04:20:43;;;;;;;5.37;4.33;;;;;;;;;;5064592;28;20573;-86
2023/01/29 04:23:20;;;;;;;4.87;4.47;;;;;;;;;;5051943;28;20637;-82
2023/01/29 04:25:54;;;;;;;5.93;5.40;;;;;;;;;;5062842;28;20684;-82
2023/01/29 04:28:25;;;;;;;6.30;5.70;;;;;;;;;;5068016;28;20241;-83
2023/01/29 04:30:55;;;;;;;6.27;5.67;;;;;;;;;;5061668;28;20643;-82
2023/01/29 04:33:29;;;;;;;5.23;4.73;;;;;;;;;;5038191;28;20209;-83
2023/01/29 04:36:25;;;;;;;7.30;5.83;;;;;;;;;;5051355;28;20732;-83
2023/01/29 04:39:00;;;;;;;5.50;4.77;;;;;;;;;;5052539;28;20220;-82
2023/01/29 04:41:32;;;;;;;6.10;5.53;;;;;;;;;;5066977;28;20221;-82
2023/01/29 04:44:03;;;;;;;3.03;2.83;;;;;;;;;;5063896;28;20270;-83
2023/01/29 04:46:43;;;;;;;5.70;5.17;;;;;;;;;;5071324;28;20300;-82
2023/01/29 04:49:17;;;;;;;6.23;5.63;;;;;;;;;;5070208;28;20215;-82
2023/01/29 04:51:49;;;;;;;6.33;5.80;;;;;;;;;;5051326;28;20205;-82
2023/01/29 04:54:21;;;;;;;6.57;5.97;;;;;;;;;;5065106;28;20243;-82
2023/01/29 04:56:53;;;;;;;11.50;10.13;;;;;;;;;;5061742;28;20233;-83
2023/01/29 04:59:22;;;;;;;23.20;18.03;;;;;;;;;;5053256;28;20212;-82
2023/01/29 05:01:50;;;;;;;13.23;10.23;;;;;;;;;;5062994;28;20224;-82
2023/01/29 05:04:19;;;;;;;12.03;9.17;;;;;;;;;;5057862;28;20236;-83
2023/01/29 05:06:46;;;;;;;17.40;13.77;;;;;;;;;;5057892;28;20611;-88
2023/01/29 05:09:14;;;;;;;12.03;9.50;;;;;;;;;;5051374;28;20225;-82
2023/01/29 05:11:42;;;;;;;7.40;5.97;;;;;;;;;;5051188;28;20260;-82
2023/01/29 05:14:12;;;;;;;9.10;7.87;;;;;;;;;;5050952;28;20213;-82
2023/01/29 05:16:41;;;;;;;12.10;10.47;;;;;;;;;;5051526;28;20279;-84
2023/01/29 05:19:12;;;;;;;18.50;14.70;;;;;;;;;;5070811;28;20241;-82
2023/01/29 05:21:39;;;;;;;14.27;12.53;;;;;;;;;;5055771;28;20206;-82
2023/01/29 05:24:09;;;;;;;9.70;8.27;;;;;;;;;;5059521;28;20208;-82
2023/01/29 05:29:20;;;;;;;5.40;4.90;;;;;;;;;;5070888;28;20694;-82
2023/01/29 05:31:47;;;;;;;8.40;7.60;;;;;;;;;;5070302;28;20252;-83
2023/01/29 05:34:15;;;;;;;13.23;10.63;;;;;;;;;;5060478;28;20235;-84
2023/01/29 05:36:42;;;;;;;19.40;13.43;;;;;;;;;;5054945;28;20232;-83
2023/01/29 05:39:09;;;;;;;14.17;12.60;;;;;;;;;;5051241;28;20638;-83
2023/01/29 05:41:36;;;;;;;39.20;27.23;;;;;;;;;;5060654;28;20626;-83
2023/01/29 05:44:02;;;;;;;40.00;29.10;;;;;;;;;;5067141;28;20202;-82
2023/01/29 05:46:29;;;;;;;16.00;14.33;;;;;;;;;;5051014;28;20216;-83
2023/01/29 05:48:56;;;;;;;8.73;7.83;;;;;;;;;;5050690;28;20198;-83
2023/01/29 05:51:24;;;;;;;13.70;11.50;;;;;;;;;;5050564;28;20206;-84
2023/01/29 05:53:51;;;;;;;22.20;19.00;;;;;;;;;;5063946;28;20259;-83
2023/01/29 05:56:18;;;;;;;20.83;18.57;;;;;;;;;;5063780;28;20214;-84
2023/01/29 05:58:44;;;;;;;26.47;21.57;;;;;;;;;;5033373;28;20647;-83
2023/01/29 06:01:13;;;;;;;26.77;22.10;;;;;;;;;;5037669;28;20202;-83
2023/01/29 06:03:39;;;;;;;38.90;29.50;;;;;;;;;;5055923;28;20241;-83
2023/01/29 06:06:07;;;;;;;48.43;32.20;;;;;;;;;;5055478;28;20220;-83
2023/01/29 06:08:35;;;;;;;76.47;54.47;;;;;;;;;;5050573;28;20206;-84
2023/01/29 06:11:02;;;;;;;46.73;34.77;;;;;;;;;;5059455;28;20259;-83
2023/01/29 06:13:31;;;;;;;38.87;29.30;;;;;;;;;;5054297;28;20201;-83
2023/01/29 06:15:58;;;;;;;29.17;24.07;;;;;;;;;;5049842;28;20291;-89
2023/01/29 06:18:25;;;;;;;35.27;27.53;;;;;;;;;;5047554;28;20282;-82
2023/01/29 06:20:53;;;;;;;44.83;38.00;;;;;;;;;;5051833;28;20229;-84
2023/01/29 06:23:19;;;;;;;42.60;30.17;;;;;;;;;;5054444;28;20271;-83
2023/01/29 06:25:47;;;;;;;42.03;26.10;;;;;;;;;;5071206;28;20213;-84
2023/01/29 06:28:14;;;;;;;38.27;23.43;;;;;;;;;;5063700;28;20209;-83
2023/01/29 06:30:41;;;;;;;28.93;22.33;;;;;;;;;;5053882;28;20202;-83
2023/01/29 06:33:08;;;;;;;28.17;22.07;;;;;;;;;;5064825;28;20212;-83
2023/01/29 06:35:34;;;;;;;25.53;22.03;;;;;;;;;;5069430;28;20754;-83
2023/01/29 06:38:01;;;;;;;19.77;15.63;;;;;;;;;;5064346;28;20848;-83
2023/01/29 06:40:28;;;;;;;19.07;15.37;;;;;;;;;;5055968;28;20206;-83
2023/01/29 06:42:56;;;;;;;21.53;17.40;;;;;;;;;;5064880;28;20262;-82
2023/01/29 06:45:23;;;;;;;25.43;19.67;;;;;;;;;;5060207;28;20284;-83
2023/01/29 06:47:50;;;;;;;25.97;18.60;;;;;;;;;;5072451;28;20209;-84
2023/01/29 06:50:18;;;;;;;8.03;7.23;;;;;;;;;;5066738;28;20716;-83
2023/01/29 06:52:45;;;;;;;14.53;11.10;;;;;;;;;;5047740;28;20217;-83
2023/01/29 06:55:12;;;;;;;14.73;11.87;;;;;;;;;;5060822;28;20279;-83
2023/01/29 06:57:39;;;;;;;13.07;10.37;;;;;;;;;;5051468;28;20244;-83
2023/01/29 07:00:13;;;;;;;11.30;8.37;;;;;;;;;;5053380;28;20695;-84
2023/01/29 07:02:40;;;;;;;11.27;10.17;;;;;;;;;;5040603;28;20242;-82
2023/01/29 07:05:07;;;;;;;13.17;11.70;;;;;;;;;;5060521;28;20213;-83
2023/01/29 07:07:35;;;;;;;16.20;14.10;;;;;;;;;;5071553;28;20247;-83
2023/01/29 07:10:03;;;;;;;40.40;29.63;;;;;;;;;;5058720;28;20677;-83
2023/01/29 07:12:30;;;;;;;34.43;21.33;;;;;;;;;;5066564;28;20209;-83
2023/01/29 07:14:57;;;;;;;10.33;9.23;;;;;;;;;;5064682;28;20213;-83
2023/01/29 07:17:31;;;;;;;7.90;7.17;;;;;;;;;;5065818;28;20229;-83
2023/01/29 07:19:58;;;;;;;5.80;5.20;;;;;;;;;;5052265;28;20229;-83
2023/01/29 07:22:25;;;;;;;6.27;4.17;;;;;;;;;;5035212;28;20271;-83
2023/01/29 07:24:52;;;;;;;5.73;5.27;;;;;;;;;;5053837;28;20205;-83
2023/01/29 07:27:19;;;;;;;5.40;4.90;;;;;;;;;;5062724;28;20202;-83
2023/01/29 07:29:46;;;;;;;5.63;5.17;;;;;;;;;;5032811;28;20572;-84
2023/01/29 07:32:13;;;;;;;5.27;4.33;;;;;;;;;;5060981;28;20209;-82
2023/01/29 07:34:42;;;;;;;6.00;4.90;;;;;;;;;;5057373;28;20632;-83
2023/01/29 07:37:09;;;;;;;4.73;4.33;;;;;;;;;;5062259;28;20256;-84
2023/01/29 07:39:36;;;;;;;3.73;3.43;;;;;;;;;;5064163;28;20213;-85
2023/01/29 07:42:03;;;;;;;5.67;4.47;;;;;;;;;;5052585;28;20198;-81
2023/01/29 07:44:30;;;;;;;4.50;4.10;;;;;;;;;;5051162;28;20206;-84
2023/01/29 07:46:57;;;;;;;4.97;4.40;;;;;;;;;;5031020;28;20198;-83
2023/01/29 07:49:24;;;;;;;6.43;5.67;;;;;;;;;;5053688;28;20205;-83
2023/01/29 07:51:53;;;;;;;7.90;5.97;;;;;;;;;;5061903;28;20209;-83
2023/01/29 07:54:21;;;;;;;11.83;9.57;;;;;;;;;;5069009;28;20208;-85
2023/01/29 07:56:48;;;;;;;10.00;9.00;;;;;;;;;;5058317;28;20213;-80
2023/01/29 07:59:15;;;;;;;9.77;8.67;;;;;;;;;;5055527;28;20243;-80
2023/01/29 08:01:42;;;;;;;9.63;8.80;;;;;;;;;;5070515;28;20196;-81
2023/01/29 08:04:09;;;;;;;7.80;7.00;;;;;;;;;;5052821;28;20303;-80
2023/01/29 08:06:36;;;;;;;26.80;19.30;;;;;;;;;;5030081;28;20273;-81
2023/01/29 08:09:04;;;;;;;13.47;10.73;;;;;;;;;;5035748;28;20657;-80
2023/01/29 08:11:31;;;;;;;14.70;11.50;;;;;;;;;;5051197;28;20680;-81
2023/01/29 08:13:59;;;;;;;15.07;12.43;;;;;;;;;;5056272;28;20212;-80
2023/01/29 08:16:26;;;;;;;10.60;9.47;;;;;;;;;;5058211;28;20264;-79
2023/01/29 08:18:53;;;;;;;13.67;10.97;;;;;;;;;;5049672;28;20595;-80
2023/01/29 08:21:20;;;;;;;11.97;10.20;;;;;;;;;;5062502;28;20205;-81
2023/01/29 08:23:47;;;;;;;11.67;9.23;;;;;;;;;;5033784;28;20206;-81
2023/01/29 08:26:16;;;;;;;11.90;9.13;;;;;;;;;;5063749;28;20219;-81
2023/01/29 08:28:43;;;;;;;9.57;7.23;;;;;;;;;;5063965;28;20560;-82
2023/01/29 08:31:14;;;;;;;23.47;12.90;;;;;;;;;;5066895;28;20210;-83
2023/01/29 08:33:41;;;;;;;56.97;29.10;;;;;;;;;;5083195;28;20240;-80
2023/01/29 08:36:09;;;;;;;16.80;12.43;;;;;;;;;;5063919;28;20262;-80
2023/01/29 08:38:36;;;;;;;7.23;6.47;;;;;;;;;;5051125;28;20291;-80
2023/01/29 08:41:04;;;;;;;10.07;7.43;;;;;;;;;;5050215;28;20738;-79
2023/01/29 08:43:34;;;;;;;14.60;10.67;;;;;;;;;;5069645;28;20201;-79
2023/01/29 08:46:01;;;;;;;58.60;46.50;;;;;;;;;;5055542;28;20206;-80
2023/01/29 08:48:29;;;;;;;22.73;18.67;;;;;;;;;;5050160;28;20209;-80
2023/01/29 08:50:58;;;;;;;16.17;13.57;;;;;;;;;;5062660;28;20209;-79
2023/01/29 08:53:26;;;;;;;9.10;8.13;;;;;;;;;;5050594;28;20233;-79
2023/01/29 08:55:54;;;;;;;9.03;7.37;;;;;;;;;;5061796;28;20213;-80
2023/01/29 08:58:20;;;;;;;9.10;6.70;;;;;;;;;;5055662;28;20585;-84
2023/01/29 09:00:49;;;;;;;8.17;6.37;;;;;;;;;;5056471;28;20223;-81
2023/01/29 09:03:16;;;;;;;10.10;7.40;;;;;;;;;;5070105;28;20274;-81
2023/01/29 09:05:43;;;;;;;15.87;10.33;;;;;;;;;;5055524;28;20205;-80
2023/01/29 09:08:12;;;;;;;9.70;7.97;;;;;;;;;;5059479;28;20198;-81
2023/01/29 09:10:39;;;;;;;19.40;12.20;;;;;;;;;;5057299;28;20205;-81
2023/01/29 09:13:06;;;;;;;18.00;10.77;;;;;;;;;;5056381;28;20237;-81
2023/01/29 09:15:33;;;;;;;22.97;17.27;;;;;;;;;;5053422;28;20210;-81
2023/01/29 09:18:05;;;;;;;12.73;11.33;;;;;;;;;;5058635;28;20232;-81
2023/01/29 09:20:32;;;;;;;16.30;12.00;;;;;;;;;;5053091;28;20198;-80
2023/01/29 09:23:04;;;;;;;17.50;13.57;;;;;;;;;;5050155;28;20217;-81
2023/01/29 09:25:31;;;;;;;9.77;8.00;;;;;;;;;;5050188;28;20209;-81
2023/01/29 09:27:59;;;;;;;12.67;11.00;;;;;;;;;;5050309;28;20213;-80
2023/01/29 09:30:26;;;;;;;14.50;10.50;;;;;;;;;;5054553;28;20204;-80
2023/01/29 09:32:53;;;;;;;15.90;10.10;;;;;;;;;;5070277;28;20614;-80
2023/01/29 09:35:22;;;;;;;15.03;10.57;;;;;;;;;;5055534;28;20202;-80
2023/01/29 09:37:51;;;;;;;28.67;16.33;;;;;;;;;;5049936;28;20708;-80
2023/01/29 09:40:25;;;;;;;15.30;10.43;;;;;;;;;;5048802;28;20210;-80
2023/01/29 09:42:56;;;;;;;14.53;9.20;;;;;;;;;;5051504;28;20205;-80
2023/01/29 09:45:24;;;;;;;15.93;11.33;;;;;;;;;;5062408;28;20210;-80
2023/01/29 09:47:52;;;;;;;17.20;9.23;;;;;;;;;;5063996;28;20213;-80
2023/01/29 09:50:24;;;;;;;15.77;8.57;;;;;;;;;;5075333;28;20244;-80
2023/01/29 09:52:54;;;;;;;32.23;22.43;;;;;;;;;;5057051;28;20730;-80
2023/01/29 09:55:23;;;;;;;79.20;51.30;;;;;;;;;;5054317;28;20271;-80
2023/01/29 09:57:52;;;;;;;98.50;52.73;;;;;;;;;;5052975;28;20229;-80
2023/01/29 10:00:24;;;;;;;46.70;28.63;;;;;;;;;;5067109;28;20213;-80
2023/01/29 10:03:06;;;;;;;103.90;64.83;;;;;;;;;;5048605;28;20197;-80
2023/01/29 10:05:47;;;;;;;35.63;21.23;;;;;;;;;;5058187;28;20205;-80
2023/01/29 10:08:34;;;;;;;40.27;26.40;;;;;;;;;;5054750;28;20217;-80
2023/01/29 10:11:05;;;;;;;46.90;34.37;;;;;;;;;;5040893;28;20692;-80
2023/01/29 10:13:41;;;;;;;20.80;15.27;;;;;;;;;;5066917;28;20208;-80
2023/01/29 10:16:30;;;;;;;13.33;10.80;;;;;;;;;;5073357;28;20201;-80
2023/01/29 10:19:11;;;;;;;16.07;12.23;;;;;;;;;;5034274;28;20226;-83
2023/01/29 10:21:53;;;;;;;13.03;10.93;;;;;;;;;;5051027;28;20668;-83
2023/01/29 10:24:27;;;;;;;21.10;15.17;;;;;;;;;;5054244;28;20213;-83
2023/01/29 10:26:56;;;;;;;18.13;13.30;;;;;;;;;;5067347;28;20687;-82
2023/01/29 10:29:23;;;;;;;16.93;12.63;;;;;;;;;;5053021;28;20201;-83
2023/01/29 10:31:53;;;;;;;18.27;13.87;;;;;;;;;;5053812;28;20206;-82
2023/01/29 10:34:26;;;;;;;19.80;12.50;;;;;;;;;;5066142;28;20212;-83
2023/01/29 10:36:56;;;;;;;26.50;18.07;;;;;;;;;;5052710;28;20220;-83
2023/01/29 10:39:25;;;;;;;15.47;12.17;;;;;;;;;;5054005;28;20233;-82
2023/01/29 10:42:19;;;;;;;15.70;12.53;;;;;;;;;;5044710;28;20203;-82
2023/01/29 10:44:53;;;;;;;12.87;10.43;;;;;;;;;;5073745;28;20288;-83
2023/01/29 10:47:34;;;;;;;16.23;14.13;;;;;;;;;;5060227;28;20680;-82
2023/01/29 10:50:17;;;;;;;15.00;12.10;;;;;;;;;;5072335;28;20213;-83
2023/01/29 10:53:07;;;;;;;12.93;10.40;;;;;;;;;;5053613;28;20205;-82
2023/01/29 10:55:41;;;;;;;14.17;10.43;;;;;;;;;;5052849;28;20205;-83
2023/01/29 10:58:16;;;;;;;19.33;13.33;;;;;;;;;;5073447;28;20229;-82
2023/01/29 11:00:43;;;;;;;28.57;19.03;;;;;;;;;;5059356;28;20212;-82
2023/01/29 11:03:15;;;;;;;28.83;17.73;;;;;;;;;;5070831;28;20229;-82
2023/01/29 11:05:45;;;;;;;16.63;13.67;;;;;;;;;;5054475;28;20245;-82
2023/01/29 11:08:17;;;;;;;16.70;13.73;;;;;;;;;;5064511;28;20255;-82
2023/01/29 11:10:49;;;;;;;18.50;14.87;;;;;;;;;;5054665;28;20577;-82
2023/01/29 11:13:17;;;;;;;14.53;11.70;;;;;;;;;;5053448;28;20209;-83
2023/01/29 11:15:44;;;;;;;18.43;12.50;;;;;;;;;;5066471;28;20696;-82
2023/01/29 11:18:14;;;;;;;40.97;30.77;;;;;;;;;;5053367;28;20229;-84
2023/01/29 11:20:41;;;;;;;46.53;33.13;;;;;;;;;;5039530;28;20263;-83
2023/01/29 11:23:28;;;;;;;33.40;22.17;;;;;;;;;;5053085;28;20210;-83
2023/01/29 11:25:57;;;;;;;25.30;18.73;;;;;;;;;;5053632;28;20212;-83
2023/01/29 11:28:40;;;;;;;21.40;15.23;;;;;;;;;;5055615;28;20618;-82
2023/01/29 11:31:22;;;;;;;43.73;25.10;;;;;;;;;;5070148;28;20204;-83
2023/01/29 11:33:51;;;;;;;37.90;24.30;;;;;;;;;;5073063;28;20231;-83
2023/01/29 11:36:27;;;;;;;34.07;23.43;;;;;;;;;;5056925;28;20241;-83
2023/01/29 11:39:26;;;;;;;36.80;25.10;;;;;;;;;;5051510;28;20222;-82
2023/01/29 11:41:56;;;;;;;65.60;40.23;;;;;;;;;;5022662;28;20204;-82
2023/01/29 11:44:29;;;;;;;39.03;26.23;;;;;;;;;;5055400;28;20300;-83
2023/01/29 11:46:57;;;;;;;15.93;12.30;;;;;;;;;;5052003;28;20205;-84
2023/01/29 11:49:34;;;;;;;20.93;15.03;;;;;;;;;;5066558;28;20213;-83
2023/01/29 11:52:03;;;;;;;22.00;11.97;;;;;;;;;;5072698;28;20208;-83
2023/01/29 11:54:34;;;;;;;14.93;10.17;;;;;;;;;;5058704;28;20750;-83
2023/01/29 11:57:02;;;;;;;14.63;9.80;;;;;;;;;;5059008;28;20267;-83
2023/01/29 11:59:41;;;;;;;16.77;11.80;;;;;;;;;;5051878;28;20595;-82
2023/01/29 12:02:20;;;;;;;27.43;20.50;;;;;;;;;;5041891;28;20263;-82
2023/01/29 12:04:47;;;;;;;21.23;16.13;;;;;;;;;;5056518;28;20798;-83
2023/01/29 12:07:14;;;;;;;13.97;11.07;;;;;;;;;;5063184;28;20259;-80
2023/01/29 12:09:50;;;;;;;15.47;10.87;;;;;;;;;;5051231;28;20202;-80
2023/01/29 12:12:22;;;;;;;15.70;11.47;;;;;;;;;;5045860;28;20300;-82
2023/01/29 12:15:02;;;;;;;18.73;15.13;;;;;;;;;;5057398;28;20237;-81
2023/01/29 12:17:31;;;;;;;13.37;9.90;;;;;;;;;;5050690;28;20205;-82
2023/01/29 12:20:07;;;;;;;16.23;10.37;;;;;;;;;;5050998;28;20240;-81
2023/01/29 12:22:40;;;;;;;24.07;16.57;;;;;;;;;;5050242;28;20198;-81
2023/01/29 12:25:21;;;;;;;12.83;9.80;;;;;;;;;;5071013;28;20244;-81
2023/01/29 12:27:53;;;;;;;10.00;7.77;;;;;;;;;;5058309;28;20205;-81
2023/01/29 12:30:24;;;;;;;9.67;7.93;;;;;;;;;;5063428;28;20209;-81
2023/01/29 12:32:56;;;;;;;10.80;8.37;;;;;;;;;;5050235;28;20221;-81
2023/01/29 12:35:26;;;;;;;36.03;18.73;;;;;;;;;;5051545;28;20205;-81
2023/01/29 12:37:59;;;;;;;61.77;35.10;;;;;;;;;;5030611;28;20206;-81
2023/01/29 12:40:31;;;;;;;36.00;24.47;;;;;;;;;;5043187;28;20236;-81
2023/01/29 12:43:04;;;;;;;73.40;41.43;;;;;;;;;;5065271;28;20202;-81
2023/01/29 12:45:33;;;;;;;59.63;36.47;;;;;;;;;;5051309;28;20711;-81
2023/01/29 12:48:03;;;;;;;26.37;18.37;;;;;;;;;;5051321;28;20213;-81
2023/01/29 12:50:34;;;;;;;17.87;13.07;;;;;;;;;;5063763;28;20209;-82
2023/01/29 12:53:02;;;;;;;42.00;23.33;;;;;;;;;;5056722;28;20208;-82
2023/01/29 12:55:37;;;;;;;77.10;41.60;;;;;;;;;;5070390;28;20274;-82
2023/01/29 12:58:05;;;;;;;23.37;15.10;;;;;;;;;;5039269;28;20796;-82
2023/01/29 13:00:33;;;;;;;29.43;20.80;;;;;;;;;;5052929;28;20234;-82
2023/01/29 13:03:04;;;;;;;14.17;10.87;;;;;;;;;;5070250;28;20294;-82
2023/01/29 13:05:34;;;;;;;13.17;11.70;;;;;;;;;;5056594;28;20209;-83
2023/01/29 13:08:04;;;;;;;42.17;31.27;;;;;;;;;;5060050;28;20256;-83
2023/01/29 13:10:37;;;;;;;18.70;14.13;;;;;;;;;;5083591;28;20214;-83
2023/01/29 13:13:07;;;;;;;13.37;10.43;;;;;;;;;;5051212;28;20236;-82
2023/01/29 13:15:37;;;;;;;17.20;15.17;;;;;;;;;;5051371;28;20205;-82
2023/01/29 13:18:28;;;;;;;29.87;22.70;;;;;;;;;;5050867;28;20205;-81
2023/01/29 13:20:56;;;;;;;20.87;18.23;;;;;;;;;;5059444;28;20676;-82
2023/01/29 13:23:28;;;;;;;16.03;12.23;;;;;;;;;;5056452;28;20310;-81
2023/01/29 13:25:57;;;;;;;20.80;15.20;;;;;;;;;;5059855;28;20201;-82
2023/01/29 13:28:27;;;;;;;16.83;12.47;;;;;;;;;;5050159;28;20255;-81
2023/01/29 13:31:20;;;;;;;18.30;13.73;;;;;;;;;;5056924;28;20198;-81
2023/01/29 13:33:54;;;;;;;17.43;13.23;;;;;;;;;;5072428;28;20642;-81
2023/01/29 13:36:27;;;;;;;11.63;9.73;;;;;;;;;;5065007;28;20241;-82
2023/01/29 13:38:59;;;;;;;13.67;10.00;;;;;;;;;;5067023;28;20225;-82
2023/01/29 13:41:34;;;;;;;13.17;9.90;;;;;;;;;;5051101;28;20228;-81
2023/01/29 13:44:02;;;;;;;13.90;10.60;;;;;;;;;;5050553;28;20212;-82
2023/01/29 13:46:29;;;;;;;13.10;10.53;;;;;;;;;;5030405;28;20210;-82
2023/01/29 13:48:59;;;;;;;14.67;11.60;;;;;;;;;;5077326;28;20198;-80
2023/01/29 13:51:33;;;;;;;19.70;15.57;;;;;;;;;;5058708;28;20208;-81
2023/01/29 13:54:03;;;;;;;21.40;15.70;;;;;;;;;;5051653;28;20213;-81
2023/01/29 13:56:50;;;;;;;21.40;15.93;;;;;;;;;;5057545;28;20292;-81
2023/01/29 13:59:36;;;;;;;19.23;14.47;;;;;;;;;;5065741;28;20225;-80
2023/01/29 14:02:17;;;;;;;27.83;21.27;;;;;;;;;;5050774;28;20213;-81
2023/01/29 14:04:44;;;;;;;68.57;43.80;;;;;;;;;;5050606;28;20237;-82
2023/01/29 14:07:39;;;;;;;48.63;33.23;;;;;;;;;;5050488;28;20218;-82
2023/01/29 14:10:17;;;;;;;28.57;21.77;;;;;;;;;;5030709;28;20199;-83
2023/01/29 14:13:26;;;;;;;17.57;13.70;;;;;;;;;;5061718;28;20643;-82
2023/01/29 14:16:27;;;;;;;14.83;11.97;;;;;;;;;;5047038;28;20262;-83
2023/01/29 14:18:57;;;;;;;21.37;14.27;;;;;;;;;;5043255;28;20210;-82
2023/01/29 14:21:28;;;;;;;15.53;11.37;;;;;;;;;;5042468;28;20711;-84
2023/01/29 14:23:57;;;;;;;22.80;16.10;;;;;;;;;;5062020;28;20576;-82
2023/01/29 14:26:33;;;;;;;18.13;14.30;;;;;;;;;;5030959;28;20215;-83
2023/01/29 14:29:18;;;;;;;26.80;18.83;;;;;;;;;;5049515;28;20209;-82
2023/01/29 14:31:51;;;;;;;25.87;18.73;;;;;;;;;;5088277;28;20209;-82
2023/01/29 14:34:26;;;;;;;19.60;14.93;;;;;;;;;;5039879;28;20235;-85
2023/01/29 14:36:55;;;;;;;17.23;13.60;;;;;;;;;;5040682;28;20205;-83
2023/01/29 14:39:38;;;;;;;12.47;9.80;;;;;;;;;;5050342;28;20228;-83
2023/01/29 14:42:17;;;;;;;19.67;14.17;;;;;;;;;;5053462;28;20212;-83
2023/01/29 14:45:01;;;;;;;15.53;13.27;;;;;;;;;;5072587;28;20657;-83
2023/01/29 14:48:00;;;;;;;14.10;11.60;;;;;;;;;;5058926;28;20293;-83
2023/01/29 14:50:48;;;;;;;12.70;10.07;;;;;;;;;;5053450;28;20214;-83
2023/01/29 14:53:23;;;;;;;15.13;12.10;;;;;;;;;;5051049;28;20629;-83
2023/01/29 14:55:55;;;;;;;17.90;14.43;;;;;;;;;;5058139;28;20206;-83
2023/01/29 14:58:26;;;;;;;20.40;15.37;;;;;;;;;;5062304;28;20216;-83
2023/01/29 15:00:56;;;;;;;20.40;15.13;;;;;;;;;;5060626;28;21244;-84
2023/01/29 15:03:30;;;;;;;20.73;14.53;;;;;;;;;;5061998;28;20233;-83
2023/01/29 15:05:58;;;;;;;21.50;15.43;;;;;;;;;;5059850;28;20671;-83
2023/01/29 15:08:28;;;;;;;14.70;12.73;;;;;;;;;;5073428;28;20212;-83
2023/01/29 15:13:42;;;;;;;13.13;11.70;;;;;;;;;;5054349;28;20201;-82
2023/01/29 15:16:16;;;;;;;12.87;11.27;;;;;;;;;;5073437;28;20209;-83
2023/01/29 15:18:44;;;;;;;17.47;12.10;;;;;;;;;;5054765;28;20281;-83
2023/01/29 15:21:12;;;;;;;17.87;13.27;;;;;;;;;;5068813;28;20255;-83
2023/01/29 15:23:42;;;;;;;9.33;6.60;;;;;;;;;;5066343;28;20689;-83
2023/01/29 15:26:10;;;;;;;12.57;10.63;;;;;;;;;;5064432;28;20240;-84